Briefing drone pour Marsannay-la-cote

Rechercher une autre localisation

Conditions de vol :


Nous sommes le : Lundi 28 novembre 2022
Il est 04:41 UTC (05:41 LT)

Lever de soleil : 06:36 UTC (07:36 LT)
Coucher de soleil : 16:19 UTC (17:19 LT)

Météo

L'essentiel des conditions de vol

VIGILANCE MÉTÉO FRANCE - Côte-dOr (21)
Pas de vigilances particulieres
CARTE TEMSI
CARTES DES FRONTS
METAR de LFSD
LFSD 280430Z AUTO 19004KT CAVOK 08/06 Q1013

Date d'émission: 28/11/2022
Heure d'émission: 04:30 UTC
Vent: 190° pour 4 KT (7 km/h)
Visibilité horizontale: > 10 km
Plafond : Plafond et visibilité OK (CAVOK)
Température: 8 °C
Point de rosée: 6 °C
Humidité: 87%
Pression (QNH): 1013 hPa
TAF de LFSD
LFSD 010600Z 0100/0124 CNL

Conditions prévues :

Heure d'émission : Bulletin éffectué le 01 à 00:00 UTC
Prévision : Valide du 01 a 00:00 UTC au 01 a 23:59 UTC
Nuages : à 0ft (0 m)
WEBCAM POUR MARSANNAY-LA-COTE

Réglementation

Voler en sécurité

CARTES AERONAUTIQUE 1/500.000
CARTE AZBA (Reseau basse altitude)
CARTES VAC (LFSD)
SUP AIP




Chargement des AIP...
NOTAM (MARSANNAY-LA-COTE + Terrain à proximité / FIR )




Chargement des NOTAMS...
CONTACT PREFECTURE 21
Côte-dOr (21) : pref-drone@cote-dor.gouv.fr


Avertissement : Les données mises à disposition sont indicatives. Oxygène Drone ne pourra être tenu responsable de dégâts causés aux biens et aux personnes.